createdAt,value
2022-12-12T00:00:43.971Z,-0.76
2022-12-12T00:03:11.441Z,-0.76
2022-12-12T00:05:39.005Z,-0.76
2022-12-12T00:08:06.409Z,-0.77
2022-12-12T00:10:34.974Z,-0.78
2022-12-12T00:13:02.625Z,-0.78
2022-12-12T00:15:29.714Z,-0.79
2022-12-12T00:17:56.675Z,-0.79
2022-12-12T00:20:23.653Z,-0.80
2022-12-12T00:22:50.660Z,-0.83
2022-12-12T00:25:17.741Z,-0.84
2022-12-12T00:27:44.777Z,-0.84
2022-12-12T00:30:12.250Z,-0.87
2022-12-12T00:32:39.188Z,-0.87
2022-12-12T00:35:06.862Z,-0.88
2022-12-12T00:37:33.914Z,-0.89
2022-12-12T00:40:01.016Z,-0.91
2022-12-12T00:42:28.486Z,-0.94
2022-12-12T00:44:55.487Z,-0.97
2022-12-12T00:47:22.492Z,-0.98
2022-12-12T00:49:49.470Z,-0.99
2022-12-12T00:52:16.663Z,-1.02
2022-12-12T00:54:43.596Z,-1.05
2022-12-12T00:57:10.540Z,-1.09
2022-12-12T00:59:37.489Z,-1.13
2022-12-12T01:02:04.626Z,-1.16
2022-12-12T01:04:31.656Z,-1.20
2022-12-12T01:06:58.606Z,-1.24
2022-12-12T01:09:25.795Z,-1.28
2022-12-12T01:11:52.738Z,-1.32
2022-12-12T01:14:19.698Z,-1.35
2022-12-12T01:16:46.670Z,-1.40
2022-12-12T01:19:13.813Z,-1.43
2022-12-12T01:21:40.752Z,-1.48
2022-12-12T01:24:07.770Z,-1.51
2022-12-12T01:26:34.752Z,-1.54
2022-12-12T01:29:02.191Z,-1.58
2022-12-12T01:31:29.177Z,-1.62
2022-12-12T01:33:56.266Z,-1.65
2022-12-12T01:36:24.035Z,-1.71
2022-12-12T01:38:54.257Z,-1.73
2022-12-12T01:41:21.537Z,-1.77
2022-12-12T01:43:49.658Z,-1.81
2022-12-12T01:46:33.117Z,-1.84
2022-12-12T01:49:26.177Z,-1.88
2022-12-12T01:51:58.767Z,-1.92
2022-12-12T01:54:34.220Z,-1.94
2022-12-12T01:57:07.138Z,-1.96
2022-12-12T01:59:35.379Z,-1.97
2022-12-12T02:02:02.681Z,-1.98
2022-12-12T02:04:29.764Z,-2.00
2022-12-12T02:06:57.640Z,-2.02
2022-12-12T02:09:25.993Z,-2.03
2022-12-12T02:11:57.038Z,-2.04
2022-12-12T02:14:39.322Z,-2.04
2022-12-12T02:17:42.947Z,-2.06
2022-12-12T02:20:40.567Z,-2.08
2022-12-12T02:24:02.575Z,-2.08
2022-12-12T02:27:16.814Z,-2.09
2022-12-12T02:30:07.508Z,-2.11
2022-12-12T02:33:14.726Z,-2.12
2022-12-12T02:35:51.550Z,-2.13
2022-12-12T02:38:51.438Z,-2.15
2022-12-12T02:41:42.473Z,-2.16
2022-12-12T02:44:26.592Z,-2.20
2022-12-12T02:47:15.722Z,-2.22
2022-12-12T02:50:06.296Z,-2.25
2022-12-12T02:52:34.226Z,-2.26
2022-12-12T02:55:01.158Z,-2.28
2022-12-12T02:57:28.574Z,-2.31
2022-12-12T03:00:08.332Z,-2.34
2022-12-12T03:03:21.390Z,-2.35
2022-12-12T03:06:42.287Z,-2.37
2022-12-12T03:09:30.742Z,-2.41
2022-12-12T03:12:06.150Z,-2.42
2022-12-12T03:15:08.547Z,-2.43
2022-12-12T03:17:54.596Z,-2.45
2022-12-12T03:20:43.227Z,-2.48
2022-12-12T03:23:16.262Z,-2.47
2022-12-12T03:26:02.101Z,-2.48
2022-12-12T03:28:43.900Z,-2.47
2022-12-12T03:31:13.000Z,-2.48
2022-12-12T03:33:53.092Z,-2.50
2022-12-12T03:36:32.476Z,-2.51
2022-12-12T03:39:13.393Z,-2.51
2022-12-12T03:41:50.235Z,-2.54
2022-12-12T03:44:25.136Z,-2.54
2022-12-12T03:47:05.640Z,-2.55
2022-12-12T03:49:48.632Z,-2.54
2022-12-12T03:52:30.448Z,-2.56
2022-12-12T03:55:08.406Z,-2.57
2022-12-12T03:57:45.773Z,-2.57
2022-12-12T04:00:15.143Z,-2.58
2022-12-12T04:03:15.567Z,-2.57
2022-12-12T04:06:22.002Z,-2.58
2022-12-12T04:09:08.205Z,-2.57
2022-12-12T04:12:01.368Z,-2.57
2022-12-12T04:14:53.192Z,-2.57
2022-12-12T04:17:37.629Z,-2.57
2022-12-12T04:20:42.516Z,-2.57
2022-12-12T04:23:41.766Z,-2.57
2022-12-12T04:26:39.969Z,-2.57
2022-12-12T04:29:11.880Z,-2.57
2022-12-12T04:32:03.436Z,-2.56
2022-12-12T04:34:44.244Z,-2.57
2022-12-12T04:37:18.484Z,-2.56
2022-12-12T04:39:51.078Z,-2.55
2022-12-12T04:42:23.746Z,-2.55
2022-12-12T04:44:54.275Z,-2.55
2022-12-12T04:47:23.758Z,-2.53
2022-12-12T04:49:52.467Z,-2.53
2022-12-12T04:52:21.285Z,-2.52
2022-12-12T04:55:05.540Z,-2.51
2022-12-12T04:58:02.200Z,-2.49
2022-12-12T05:00:43.995Z,-2.48
2022-12-12T05:03:20.074Z,-2.47
2022-12-12T05:06:11.608Z,-2.45
2022-12-12T05:08:45.942Z,-2.44
2022-12-12T05:11:13.898Z,-2.42
2022-12-12T05:13:43.066Z,-2.42
2022-12-12T05:16:37.702Z,-2.41
2022-12-12T05:19:05.142Z,-2.39
2022-12-12T05:21:32.198Z,-2.40
2022-12-12T05:23:59.130Z,-2.37
2022-12-12T05:26:29.685Z,-2.38
2022-12-12T05:28:59.926Z,-2.38
2022-12-12T05:31:30.697Z,-2.37
2022-12-12T05:33:57.791Z,-2.36
2022-12-12T05:36:24.765Z,-2.37
2022-12-12T05:38:51.693Z,-2.37
2022-12-12T05:41:18.648Z,-2.37
2022-12-12T05:43:45.581Z,-2.39
2022-12-12T05:46:12.632Z,-2.38
2022-12-12T05:48:39.677Z,-2.38
2022-12-12T05:51:06.652Z,-2.38
2022-12-12T05:53:42.065Z,-2.38
2022-12-12T05:56:11.342Z,-2.38
2022-12-12T05:58:40.467Z,-2.38
2022-12-12T06:01:08.340Z,-2.38
2022-12-12T06:03:35.860Z,-2.37
2022-12-12T06:06:03.831Z,-2.37
2022-12-12T06:08:30.867Z,-2.37
2022-12-12T06:10:57.864Z,-2.36
2022-12-12T06:13:24.843Z,-2.36
2022-12-12T06:15:51.812Z,-2.36
2022-12-12T06:18:18.958Z,-2.36
2022-12-12T06:20:45.929Z,-2.37
2022-12-12T06:23:12.972Z,-2.35
2022-12-12T06:25:40.006Z,-2.36
2022-12-12T06:28:07.254Z,-2.36
2022-12-12T06:30:34.496Z,-2.37
2022-12-12T06:33:01.527Z,-2.36
2022-12-12T06:35:28.498Z,-2.36
2022-12-12T06:37:55.444Z,-2.37
2022-12-12T06:40:22.394Z,-2.37
2022-12-12T06:42:49.416Z,-2.38
2022-12-12T06:45:17.185Z,-2.39
2022-12-12T06:47:44.302Z,-2.39
2022-12-12T06:50:11.800Z,-2.40
2022-12-12T06:52:38.785Z,-2.40
2022-12-12T06:55:06.380Z,-2.40
2022-12-12T06:57:36.163Z,-2.42
2022-12-12T07:00:06.411Z,-2.43
2022-12-12T07:02:33.397Z,-2.43
2022-12-12T07:05:00.499Z,-2.43
2022-12-12T07:07:27.418Z,-2.45
2022-12-12T07:09:54.333Z,-2.45
2022-12-12T07:12:21.293Z,-2.44
2022-12-12T07:14:48.255Z,-2.44
2022-12-12T07:17:15.200Z,-2.44
2022-12-12T07:19:42.295Z,-2.45
2022-12-12T07:22:10.385Z,-2.45
2022-12-12T07:24:38.046Z,-2.47
2022-12-12T07:27:06.351Z,-2.45
2022-12-12T07:29:33.735Z,-2.45
2022-12-12T07:32:00.770Z,-2.45
2022-12-12T07:34:29.895Z,-2.44
2022-12-12T07:37:02.529Z,-2.45
2022-12-12T07:39:32.557Z,-2.45
2022-12-12T07:41:59.799Z,-2.45
2022-12-12T07:44:26.880Z,-2.44
2022-12-12T07:46:53.915Z,-2.45
2022-12-12T07:49:20.864Z,-2.44
2022-12-12T07:51:49.359Z,-2.43
2022-12-12T07:54:17.161Z,-2.43
2022-12-12T07:56:44.139Z,-2.44
2022-12-12T07:59:11.918Z,-2.44
2022-12-12T08:01:39.679Z,-2.44
2022-12-12T08:04:06.702Z,-2.44
2022-12-12T08:06:33.750Z,-2.44
2022-12-12T08:09:00.687Z,-2.44
2022-12-12T08:11:27.825Z,-2.43
2022-12-12T08:13:54.977Z,-2.41
2022-12-12T08:16:27.851Z,-2.41
2022-12-12T08:18:57.526Z,-2.40
2022-12-12T08:21:26.799Z,-2.37
2022-12-12T08:24:02.170Z,-2.36
2022-12-12T08:26:30.718Z,-2.34
2022-12-12T08:28:58.662Z,-2.31
2022-12-12T08:31:26.186Z,-2.29
2022-12-12T08:33:53.656Z,-2.28
2022-12-12T08:36:24.534Z,-2.24
2022-12-12T08:38:52.402Z,-2.23
2022-12-12T08:41:20.022Z,-2.20
2022-12-12T08:43:47.438Z,-2.18
2022-12-12T08:46:18.036Z,-2.18
2022-12-12T08:48:46.465Z,-2.16
2022-12-12T08:51:14.752Z,-2.15
2022-12-12T08:53:45.708Z,-2.13
2022-12-12T08:56:13.485Z,-2.10
2022-12-12T08:58:40.741Z,-2.09
2022-12-12T09:01:21.453Z,-2.06
2022-12-12T09:03:49.010Z,-2.04
2022-12-12T09:06:17.131Z,-2.02
2022-12-12T09:08:46.178Z,-2.00
2022-12-12T09:11:14.082Z,-1.97
2022-12-12T09:13:41.530Z,-1.96
2022-12-12T09:16:10.904Z,-1.92
2022-12-12T09:18:44.606Z,-1.92
2022-12-12T09:21:15.030Z,-1.88
2022-12-12T09:23:42.050Z,-1.87
2022-12-12T09:26:10.237Z,-1.85
2022-12-12T09:28:37.660Z,-1.83
2022-12-12T09:31:10.219Z,-1.80
2022-12-12T09:33:38.093Z,-1.77
2022-12-12T09:36:07.889Z,-1.74
2022-12-12T09:38:35.533Z,-1.72
2022-12-12T09:41:10.332Z,-1.69
2022-12-12T09:44:06.274Z,-1.64
2022-12-12T09:46:47.107Z,-1.62
2022-12-12T09:49:47.735Z,-1.61
2022-12-12T09:52:31.291Z,-1.62
2022-12-12T09:55:17.149Z,-1.63
2022-12-12T09:57:56.279Z,-1.63
2022-12-12T10:00:23.314Z,-1.65
2022-12-12T10:03:19.175Z,-1.65
2022-12-12T10:09:33.940Z,-1.67
2022-12-12T10:12:08.002Z,-1.66
2022-12-12T10:14:52.745Z,-1.61
2022-12-12T10:17:37.301Z,-1.55
2022-12-12T10:20:32.492Z,-1.47
2022-12-12T10:23:15.806Z,-1.41
2022-12-12T10:25:56.374Z,-1.33
2022-12-12T10:28:30.938Z,-1.28
2022-12-12T10:31:25.631Z,-1.19
2022-12-12T10:34:15.767Z,-1.11
2022-12-12T10:37:22.987Z,-1.03
2022-12-12T10:40:14.165Z,-0.93
2022-12-12T10:43:14.815Z,-0.85
2022-12-12T10:46:09.545Z,-0.77
2022-12-12T10:48:36.782Z,-0.70
2022-12-12T10:51:07.977Z,-0.62
2022-12-12T10:53:35.365Z,-0.55
2022-12-12T10:56:07.708Z,-0.47
2022-12-12T10:58:51.222Z,-0.40
2022-12-12T11:01:38.383Z,-0.35
2022-12-12T11:04:08.953Z,-0.27
2022-12-12T11:06:51.556Z,-0.21
2022-12-12T11:09:28.305Z,-0.14
2022-12-12T11:12:04.400Z,-0.07
2022-12-12T11:14:52.045Z,-0.01
2022-12-12T11:17:25.773Z,0.05
2022-12-12T11:19:57.230Z,0.12
2022-12-12T11:22:25.919Z,0.16
2022-12-12T11:24:54.529Z,0.22
2022-12-12T11:27:31.285Z,0.28
2022-12-12T11:30:06.055Z,0.35
2022-12-12T11:32:44.531Z,0.40
2022-12-12T11:35:45.723Z,0.47
2022-12-12T11:38:22.177Z,0.53
2022-12-12T11:41:05.760Z,0.57
2022-12-12T11:43:37.847Z,0.59
2022-12-12T11:46:16.041Z,0.60
2022-12-12T11:48:51.619Z,0.66
2022-12-12T11:51:40.877Z,0.69
2022-12-12T11:54:34.621Z,0.73
2022-12-12T11:57:15.073Z,0.74
2022-12-12T12:00:11.406Z,0.82
2022-12-12T12:03:09.046Z,0.86
2022-12-12T12:06:35.824Z,0.93
2022-12-12T12:09:41.368Z,0.96
2022-12-12T12:12:20.997Z,0.99
2022-12-12T12:14:57.042Z,1.00
2022-12-12T12:17:32.559Z,1.04
2022-12-12T12:20:33.595Z,1.05
2022-12-12T12:23:42.530Z,1.07
2022-12-12T12:26:52.677Z,1.08
2022-12-12T12:30:16.135Z,1.05
2022-12-12T12:33:26.165Z,1.02
2022-12-12T12:36:20.855Z,0.99
2022-12-12T12:39:24.111Z,0.94
2022-12-12T12:42:26.136Z,0.92
2022-12-12T12:45:15.511Z,0.89
2022-12-12T12:47:53.609Z,0.85
2022-12-12T12:50:34.494Z,0.82
2022-12-12T12:53:59.150Z,0.80
2022-12-12T12:56:34.005Z,0.74
2022-12-12T12:59:14.983Z,0.70
2022-12-12T13:01:46.567Z,0.65
2022-12-12T13:04:41.844Z,0.60
2022-12-12T13:07:49.790Z,0.55
2022-12-12T13:10:28.061Z,0.47
2022-12-12T13:13:14.912Z,0.41
2022-12-12T13:15:58.649Z,0.36
2022-12-12T13:18:37.059Z,0.32
2022-12-12T13:21:35.632Z,0.29
2022-12-12T13:24:12.598Z,0.24
2022-12-12T13:27:03.205Z,0.18
2022-12-12T13:29:50.702Z,0.16
2022-12-12T13:32:50.535Z,0.13
2022-12-12T13:35:51.096Z,0.09
2022-12-12T13:38:29.855Z,0.06
2022-12-12T13:40:59.197Z,0.01
2022-12-12T13:43:34.330Z,0.00
2022-12-12T13:46:23.309Z,0.03
2022-12-12T13:49:24.299Z,0.13
2022-12-12T13:51:51.430Z,0.22
2022-12-12T13:54:18.248Z,0.37
2022-12-12T13:56:57.249Z,0.53
2022-12-12T13:59:26.684Z,0.67
2022-12-12T14:02:02.105Z,0.84
2022-12-12T14:04:41.525Z,0.98
2022-12-12T14:07:21.676Z,1.09
2022-12-12T14:09:52.660Z,1.16
2022-12-12T14:12:33.477Z,1.21
2022-12-12T14:15:18.341Z,1.22
2022-12-12T14:17:55.718Z,1.21
2022-12-12T14:20:33.966Z,1.14
2022-12-12T14:23:12.670Z,1.11
2022-12-12T14:25:41.523Z,1.03
2022-12-12T14:28:30.802Z,0.97
2022-12-12T14:31:16.948Z,0.89
2022-12-12T14:33:59.753Z,0.81
2022-12-12T14:37:00.803Z,0.75
2022-12-12T14:40:00.889Z,0.70
2022-12-12T14:43:19.939Z,0.64
2022-12-12T14:45:53.692Z,0.60
2022-12-12T14:48:28.093Z,0.54
2022-12-12T14:51:34.595Z,0.50
2022-12-12T14:54:03.988Z,0.44
2022-12-12T14:56:53.015Z,0.40
2022-12-12T14:59:39.105Z,0.37
2022-12-12T15:02:38.923Z,0.31
2022-12-12T15:05:08.204Z,0.23
2022-12-12T15:07:40.832Z,0.18
2022-12-12T15:10:27.438Z,0.13
2022-12-12T15:12:54.504Z,0.06
2022-12-12T15:15:32.013Z,0.00
2022-12-12T15:18:00.882Z,-0.06
2022-12-12T15:20:32.333Z,-0.11
2022-12-12T15:23:02.855Z,-0.16
2022-12-12T15:25:55.196Z,-0.22
2022-12-12T15:28:24.826Z,-0.28
2022-12-12T15:30:53.519Z,-0.34
2022-12-12T15:33:26.978Z,-0.39
2022-12-12T15:36:02.177Z,-0.44
2022-12-12T15:38:30.062Z,-0.50
2022-12-12T15:41:06.634Z,-0.56
2022-12-12T15:43:38.837Z,-0.62
2022-12-12T15:46:16.102Z,-0.67
2022-12-12T15:48:45.174Z,-0.74
2022-12-12T15:51:14.898Z,-0.78
2022-12-12T15:53:52.337Z,-0.83
2022-12-12T15:56:25.107Z,-0.90
2022-12-12T15:59:21.212Z,-0.93
2022-12-12T16:01:48.240Z,-0.99
2022-12-12T16:04:15.114Z,-1.03
2022-12-12T16:06:48.261Z,-1.06
2022-12-12T16:09:22.452Z,-1.09
2022-12-12T16:11:52.919Z,-1.13
2022-12-12T16:14:24.667Z,-1.17
2022-12-12T16:17:20.772Z,-1.20
2022-12-12T16:19:53.763Z,-1.24
2022-12-12T16:22:47.119Z,-1.29
2022-12-12T16:25:32.392Z,-1.33
2022-12-12T16:28:08.416Z,-1.36
2022-12-12T16:30:37.448Z,-1.40
2022-12-12T16:33:30.724Z,-1.41
2022-12-12T16:36:00.703Z,-1.46
2022-12-12T16:38:29.637Z,-1.49
2022-12-12T16:41:00.992Z,-1.51
2022-12-12T16:43:28.538Z,-1.54
2022-12-12T16:45:56.934Z,-1.56
2022-12-12T16:48:36.748Z,-1.56
2022-12-12T16:51:09.164Z,-1.59
2022-12-12T16:53:36.983Z,-1.61
2022-12-12T16:56:04.739Z,-1.63
2022-12-12T16:58:32.672Z,-1.65
2022-12-12T17:01:01.584Z,-1.67
2022-12-12T17:03:29.898Z,-1.68
2022-12-12T17:05:56.844Z,-1.70
2022-12-12T17:08:23.851Z,-1.71
2022-12-12T17:11:10.094Z,-1.73
2022-12-12T17:13:46.095Z,-1.73
2022-12-12T17:16:13.386Z,-1.75
2022-12-12T17:18:40.406Z,-1.76
2022-12-12T17:21:07.376Z,-1.77
2022-12-12T17:23:34.326Z,-1.77
2022-12-12T17:26:04.771Z,-1.77
2022-12-12T17:28:33.961Z,-1.80
2022-12-12T17:31:01.334Z,-1.80
2022-12-12T17:33:28.731Z,-1.81
2022-12-12T17:36:05.482Z,-1.81
2022-12-12T17:38:33.620Z,-1.80
2022-12-12T17:41:08.886Z,-1.82
2022-12-12T17:43:37.430Z,-1.83
2022-12-12T17:46:14.225Z,-1.84
2022-12-12T17:48:46.542Z,-1.85
2022-12-12T17:51:17.797Z,-1.86
2022-12-12T17:53:44.783Z,-1.88
2022-12-12T17:56:18.111Z,-1.88
2022-12-12T17:58:47.610Z,-1.89
2022-12-12T18:01:21.676Z,-1.92
2022-12-12T18:03:49.503Z,-1.92
2022-12-12T18:06:18.669Z,-1.93
2022-12-12T18:08:46.883Z,-1.96
2022-12-12T18:11:19.139Z,-1.98
2022-12-12T18:13:50.250Z,-1.99
2022-12-12T18:16:18.277Z,-2.01
2022-12-12T18:18:45.474Z,-2.01
2022-12-12T18:21:42.904Z,-2.03
2022-12-12T18:24:04.274Z,-2.03
2022-12-12T18:26:31.345Z,-2.03
2022-12-12T18:29:06.934Z,-2.06
2022-12-12T18:31:35.014Z,-2.06
2022-12-12T18:34:02.303Z,-2.07
2022-12-12T18:36:30.865Z,-2.10
2022-12-12T18:39:01.776Z,-2.10
2022-12-12T18:41:28.968Z,-2.11
2022-12-12T18:43:56.093Z,-2.12
2022-12-12T18:46:27.686Z,-2.13
2022-12-12T18:48:54.627Z,-2.14
2022-12-12T18:51:25.033Z,-2.16
2022-12-12T18:53:54.481Z,-2.18
2022-12-12T18:56:25.684Z,-2.19
2022-12-12T18:58:54.317Z,-2.21
2022-12-12T19:01:25.827Z,-2.22
2022-12-12T19:03:56.656Z,-2.22
2022-12-12T19:06:33.841Z,-2.24
2022-12-12T19:09:17.504Z,-2.25
2022-12-12T19:11:45.626Z,-2.25
2022-12-12T19:14:15.065Z,-2.27
2022-12-12T19:16:43.961Z,-2.28
2022-12-12T19:19:12.041Z,-2.30
2022-12-12T19:21:40.780Z,-2.31
2022-12-12T19:24:09.254Z,-2.32
2022-12-12T19:26:37.250Z,-2.32
2022-12-12T19:29:11.977Z,-2.34
2022-12-12T19:31:39.227Z,-2.36
2022-12-12T19:34:07.948Z,-2.37
2022-12-12T19:36:35.882Z,-2.37
2022-12-12T19:39:06.138Z,-2.39
2022-12-12T19:41:33.959Z,-2.40
2022-12-12T19:44:02.726Z,-2.40
2022-12-12T19:46:31.524Z,-2.41
2022-12-12T19:49:01.939Z,-2.42
2022-12-12T19:51:35.958Z,-2.44
2022-12-12T19:54:08.292Z,-2.44
2022-12-12T19:56:38.618Z,-2.47
2022-12-12T19:59:05.897Z,-2.48
2022-12-12T20:01:35.946Z,-2.50
2022-12-12T20:04:22.125Z,-2.50
2022-12-12T20:06:50.334Z,-2.54
2022-12-12T20:09:27.580Z,-2.56
2022-12-12T20:11:56.787Z,-2.58
2022-12-12T20:14:31.461Z,-2.58
2022-12-12T20:16:59.892Z,-2.60
2022-12-12T20:19:27.835Z,-2.61
2022-12-12T20:22:03.820Z,-2.63
2022-12-12T20:24:33.587Z,-2.64
2022-12-12T20:27:05.670Z,-2.65
2022-12-12T20:29:32.921Z,-2.67
2022-12-12T20:32:01.203Z,-2.67
2022-12-12T20:34:28.931Z,-2.68
2022-12-12T20:36:56.277Z,-2.70
2022-12-12T20:39:24.810Z,-2.71
2022-12-12T20:41:53.568Z,-2.72
2022-12-12T20:44:23.198Z,-2.74
2022-12-12T20:46:50.164Z,-2.77
2022-12-12T20:49:19.723Z,-2.78
2022-12-12T20:51:56.391Z,-2.80
2022-12-12T20:54:26.117Z,-2.81
2022-12-12T20:56:55.817Z,-2.84
2022-12-12T20:59:23.621Z,-2.86
2022-12-12T21:01:51.019Z,-2.88
2022-12-12T21:04:18.292Z,-2.89
2022-12-12T21:06:49.701Z,-2.91
2022-12-12T21:09:23.813Z,-2.93
2022-12-12T21:11:54.868Z,-2.93
2022-12-12T21:14:22.390Z,-2.96
2022-12-12T21:16:49.649Z,-2.97
2022-12-12T21:19:18.691Z,-3.02
2022-12-12T21:21:46.488Z,-3.03
2022-12-12T21:24:16.652Z,-3.04
2022-12-12T21:26:44.499Z,-3.07
2022-12-12T21:29:11.509Z,-3.08
2022-12-12T21:31:48.129Z,-3.09
2022-12-12T21:34:18.887Z,-3.12
2022-12-12T21:36:45.892Z,-3.14
2022-12-12T21:39:13.502Z,-3.15
2022-12-12T21:41:43.656Z,-3.17
2022-12-12T21:44:10.711Z,-3.19
2022-12-12T21:46:41.593Z,-3.22
2022-12-12T21:49:41.178Z,-3.23
2022-12-12T21:52:13.757Z,-3.26
2022-12-12T21:54:40.735Z,-3.29
2022-12-12T21:57:08.001Z,-3.30
2022-12-12T21:59:38.590Z,-3.33
2022-12-12T22:02:07.011Z,-3.34
2022-12-12T22:04:34.096Z,-3.35
2022-12-12T22:07:01.041Z,-3.37
2022-12-12T22:09:28.104Z,-3.39
2022-12-12T22:12:03.961Z,-3.41
2022-12-12T22:14:33.493Z,-3.42
2022-12-12T22:17:02.864Z,-3.44
2022-12-12T22:19:29.808Z,-3.45
2022-12-12T22:21:56.753Z,-3.46
2022-12-12T22:24:23.704Z,-3.47
2022-12-12T22:26:50.757Z,-3.50
2022-12-12T22:29:20.009Z,-3.51
2022-12-12T22:31:49.843Z,-3.53
2022-12-12T22:34:21.621Z,-3.56
2022-12-12T22:36:48.814Z,-3.56
2022-12-12T22:39:23.343Z,-3.58
2022-12-12T22:41:50.803Z,-3.59
2022-12-12T22:44:20.327Z,-3.59
2022-12-12T22:46:50.619Z,-3.59
2022-12-12T22:49:22.481Z,-3.61
2022-12-12T22:51:49.956Z,-3.62
2022-12-12T22:54:17.977Z,-3.64
2022-12-12T22:56:45.356Z,-3.62
2022-12-12T22:59:13.546Z,-3.64
2022-12-12T23:01:41.829Z,-3.64
2022-12-12T23:04:13.157Z,-3.64
2022-12-12T23:06:40.991Z,-3.65
2022-12-12T23:09:21.111Z,-3.67
2022-12-12T23:11:49.495Z,-3.68
2022-12-12T23:14:21.488Z,-3.69
2022-12-12T23:16:50.279Z,-3.69
2022-12-12T23:19:22.314Z,-3.71
2022-12-12T23:21:49.701Z,-3.72
2022-12-12T23:24:16.626Z,-3.73
2022-12-12T23:26:44.362Z,-3.74
2022-12-12T23:29:16.696Z,-3.73
2022-12-12T23:31:44.353Z,-3.74
2022-12-12T23:34:23.754Z,-3.74
2022-12-12T23:36:53.676Z,-3.77
2022-12-12T23:39:22.140Z,-3.78
2022-12-12T23:41:49.446Z,-3.79
2022-12-12T23:44:18.991Z,-3.80
2022-12-12T23:46:46.488Z,-3.82
2022-12-12T23:49:13.289Z,-3.82
2022-12-12T23:51:52.526Z,-3.85
2022-12-12T23:54:32.016Z,-3.87
2022-12-12T23:57:00.096Z,-3.85
2022-12-12T23:59:27.578Z,-3.88
